sensor_id;sensor_type;location;lat;lon;timestamp;P1;durP1;ratioP1;P2;durP2;ratioP2
66342;SDS011;53144;51.524;5.080;2023-07-24T00:01:01;7.20;;;5.53;;
66342;SDS011;53144;51.524;5.080;2023-07-24T00:03:26;6.50;;;5.00;;
66342;SDS011;53144;51.524;5.080;2023-07-24T00:05:52;8.25;;;5.28;;
66342;SDS011;53144;51.524;5.080;2023-07-24T00:08:17;7.43;;;4.93;;
66342;SDS011;53144;51.524;5.080;2023-07-24T00:10:42;7.10;;;5.13;;
66342;SDS011;53144;51.524;5.080;2023-07-24T00:13:08;7.03;;;4.93;;
66342;SDS011;53144;51.524;5.080;2023-07-24T00:15:33;7.50;;;5.50;;
66342;SDS011;53144;51.524;5.080;2023-07-24T00:17:58;6.28;;;4.97;;
66342;SDS011;53144;51.524;5.080;2023-07-24T00:20:24;6.43;;;4.97;;
66342;SDS011;53144;51.524;5.080;2023-07-24T00:22:50;6.80;;;4.50;;
66342;SDS011;53144;51.524;5.080;2023-07-24T00:25:15;8.48;;;4.97;;
66342;SDS011;53144;51.524;5.080;2023-07-24T00:27:41;5.78;;;4.20;;
66342;SDS011;53144;51.524;5.080;2023-07-24T00:30:06;7.85;;;5.00;;
66342;SDS011;53144;51.524;5.080;2023-07-24T00:32:32;5.80;;;4.47;;
66342;SDS011;53144;51.524;5.080;2023-07-24T00:34:58;7.55;;;5.07;;
66342;SDS011;53144;51.524;5.080;2023-07-24T00:37:24;6.82;;;4.90;;
66342;SDS011;53144;51.524;5.080;2023-07-24T00:39:49;7.35;;;5.00;;
66342;SDS011;53144;51.524;5.080;2023-07-24T00:42:15;7.55;;;5.00;;
66342;SDS011;53144;51.524;5.080;2023-07-24T00:44:40;7.43;;;5.45;;
66342;SDS011;53144;51.524;5.080;2023-07-24T00:47:05;9.20;;;5.30;;
66342;SDS011;53144;51.524;5.080;2023-07-24T00:49:31;8.70;;;5.72;;
66342;SDS011;53144;51.524;5.080;2023-07-24T00:51:57;8.38;;;5.88;;
66342;SDS011;53144;51.524;5.080;2023-07-24T00:54:22;8.02;;;5.22;;
66342;SDS011;53144;51.524;5.080;2023-07-24T00:56:49;9.50;;;5.10;;
66342;SDS011;53144;51.524;5.080;2023-07-24T00:59:15;8.70;;;5.15;;
66342;SDS011;53144;51.524;5.080;2023-07-24T01:01:40;9.60;;;5.38;;
66342;SDS011;53144;51.524;5.080;2023-07-24T01:04:07;8.18;;;5.78;;
66342;SDS011;53144;51.524;5.080;2023-07-24T01:06:33;9.20;;;5.20;;
66342;SDS011;53144;51.524;5.080;2023-07-24T01:08:58;8.18;;;5.47;;
66342;SDS011;53144;51.524;5.080;2023-07-24T01:11:25;7.65;;;4.95;;
66342;SDS011;53144;51.524;5.080;2023-07-24T01:13:57;5.93;;;4.97;;
66342;SDS011;53144;51.524;5.080;2023-07-24T01:16:33;8.93;;;5.40;;
66342;SDS011;53144;51.524;5.080;2023-07-24T01:19:04;8.73;;;5.30;;
66342;SDS011;53144;51.524;5.080;2023-07-24T01:21:44;9.40;;;5.20;;
66342;SDS011;53144;51.524;5.080;2023-07-24T01:24:29;10.50;;;5.45;;
66342;SDS011;53144;51.524;5.080;2023-07-24T01:26:58;10.20;;;5.32;;
66342;SDS011;53144;51.524;5.080;2023-07-24T01:29:24;7.00;;;5.03;;
66342;SDS011;53144;51.524;5.080;2023-07-24T01:31:49;7.38;;;5.18;;
66342;SDS011;53144;51.524;5.080;2023-07-24T01:34:15;7.38;;;5.28;;
66342;SDS011;53144;51.524;5.080;2023-07-24T01:36:40;7.22;;;5.43;;
66342;SDS011;53144;51.524;5.080;2023-07-24T01:39:06;7.53;;;5.03;;
66342;SDS011;53144;51.524;5.080;2023-07-24T01:41:32;6.80;;;4.93;;
66342;SDS011;53144;51.524;5.080;2023-07-24T01:43:58;14.18;;;5.85;;
66342;SDS011;53144;51.524;5.080;2023-07-24T01:46:24;9.95;;;5.45;;
66342;SDS011;53144;51.524;5.080;2023-07-24T01:48:50;8.18;;;5.40;;
66342;SDS011;53144;51.524;5.080;2023-07-24T01:51:17;8.45;;;5.10;;
66342;SDS011;53144;51.524;5.080;2023-07-24T01:53:42;8.48;;;4.95;;
66342;SDS011;53144;51.524;5.080;2023-07-24T01:56:08;6.32;;;4.60;;
66342;SDS011;53144;51.524;5.080;2023-07-24T01:58:33;6.53;;;4.22;;
66342;SDS011;53144;51.524;5.080;2023-07-24T02:00:59;6.82;;;4.47;;
66342;SDS011;53144;51.524;5.080;2023-07-24T02:03:24;7.65;;;4.55;;
66342;SDS011;53144;51.524;5.080;2023-07-24T02:05:50;8.38;;;4.85;;
66342;SDS011;53144;51.524;5.080;2023-07-24T02:08:16;8.05;;;5.00;;
66342;SDS011;53144;51.524;5.080;2023-07-24T02:10:41;8.85;;;5.15;;
66342;SDS011;53144;51.524;5.080;2023-07-24T02:13:06;8.93;;;5.00;;
66342;SDS011;53144;51.524;5.080;2023-07-24T02:15:32;6.20;;;4.57;;
66342;SDS011;53144;51.524;5.080;2023-07-24T02:17:58;6.30;;;4.03;;
66342;SDS011;53144;51.524;5.080;2023-07-24T02:20:23;7.50;;;4.32;;
66342;SDS011;53144;51.524;5.080;2023-07-24T02:22:48;7.32;;;4.30;;
66342;SDS011;53144;51.524;5.080;2023-07-24T02:25:14;7.20;;;3.83;;
66342;SDS011;53144;51.524;5.080;2023-07-24T02:27:39;6.70;;;3.90;;
66342;SDS011;53144;51.524;5.080;2023-07-24T02:30:05;5.70;;;3.97;;
66342;SDS011;53144;51.524;5.080;2023-07-24T02:32:31;5.90;;;3.95;;
66342;SDS011;53144;51.524;5.080;2023-07-24T02:34:57;5.57;;;3.65;;
66342;SDS011;53144;51.524;5.080;2023-07-24T02:37:22;5.78;;;3.67;;
66342;SDS011;53144;51.524;5.080;2023-07-24T02:39:48;4.57;;;3.75;;
66342;SDS011;53144;51.524;5.080;2023-07-24T02:42:13;5.57;;;3.70;;
66342;SDS011;53144;51.524;5.080;2023-07-24T02:44:38;6.32;;;3.75;;
66342;SDS011;53144;51.524;5.080;2023-07-24T02:47:04;5.40;;;3.67;;
66342;SDS011;53144;51.524;5.080;2023-07-24T02:49:29;5.18;;;3.63;;
66342;SDS011;53144;51.524;5.080;2023-07-24T02:51:55;6.55;;;3.63;;
66342;SDS011;53144;51.524;5.080;2023-07-24T02:54:20;5.85;;;3.72;;
66342;SDS011;53144;51.524;5.080;2023-07-24T02:56:46;4.60;;;3.50;;
66342;SDS011;53144;51.524;5.080;2023-07-24T02:59:11;5.07;;;3.50;;
66342;SDS011;53144;51.524;5.080;2023-07-24T03:01:37;5.20;;;3.65;;
66342;SDS011;53144;51.524;5.080;2023-07-24T03:04:02;5.07;;;3.25;;
66342;SDS011;53144;51.524;5.080;2023-07-24T03:06:30;5.80;;;3.88;;
66342;SDS011;53144;51.524;5.080;2023-07-24T03:08:55;5.70;;;3.83;;
66342;SDS011;53144;51.524;5.080;2023-07-24T03:11:21;10.57;;;4.30;;
66342;SDS011;53144;51.524;5.080;2023-07-24T03:13:46;6.78;;;4.15;;
66342;SDS011;53144;51.524;5.080;2023-07-24T03:16:11;8.57;;;4.40;;
66342;SDS011;53144;51.524;5.080;2023-07-24T03:18:37;5.55;;;4.30;;
66342;SDS011;53144;51.524;5.080;2023-07-24T03:21:02;7.07;;;4.70;;
66342;SDS011;53144;51.524;5.080;2023-07-24T03:23:28;5.97;;;4.63;;
66342;SDS011;53144;51.524;5.080;2023-07-24T03:25:54;7.07;;;4.90;;
66342;SDS011;53144;51.524;5.080;2023-07-24T03:28:19;6.13;;;4.82;;
66342;SDS011;53144;51.524;5.080;2023-07-24T03:30:45;5.70;;;4.60;;
66342;SDS011;53144;51.524;5.080;2023-07-24T03:33:10;5.45;;;4.38;;
66342;SDS011;53144;51.524;5.080;2023-07-24T03:35:37;6.38;;;4.60;;
66342;SDS011;53144;51.524;5.080;2023-07-24T03:38:03;5.75;;;4.70;;
66342;SDS011;53144;51.524;5.080;2023-07-24T03:40:29;8.57;;;4.75;;
66342;SDS011;53144;51.524;5.080;2023-07-24T03:42:54;6.18;;;4.47;;
66342;SDS011;53144;51.524;5.080;2023-07-24T03:45:20;7.18;;;4.55;;
66342;SDS011;53144;51.524;5.080;2023-07-24T03:47:45;6.05;;;4.50;;
66342;SDS011;53144;51.524;5.080;2023-07-24T03:50:11;6.95;;;4.78;;
66342;SDS011;53144;51.524;5.080;2023-07-24T03:52:37;4.90;;;4.13;;
66342;SDS011;53144;51.524;5.080;2023-07-24T03:55:03;5.53;;;4.28;;
66342;SDS011;53144;51.524;5.080;2023-07-24T03:57:28;7.15;;;4.47;;
66342;SDS011;53144;51.524;5.080;2023-07-24T03:59:54;9.07;;;4.85;;
66342;SDS011;53144;51.524;5.080;2023-07-24T04:02:19;8.57;;;5.18;;
66342;SDS011;53144;51.524;5.080;2023-07-24T04:04:44;7.00;;;4.82;;
66342;SDS011;53144;51.524;5.080;2023-07-24T04:07:10;7.80;;;5.55;;
66342;SDS011;53144;51.524;5.080;2023-07-24T04:09:35;7.30;;;4.82;;
66342;SDS011;53144;51.524;5.080;2023-07-24T04:12:00;6.38;;;5.22;;
66342;SDS011;53144;51.524;5.080;2023-07-24T04:14:26;5.57;;;4.88;;
66342;SDS011;53144;51.524;5.080;2023-07-24T04:16:51;8.23;;;5.32;;
66342;SDS011;53144;51.524;5.080;2023-07-24T04:19:16;6.50;;;5.18;;
66342;SDS011;53144;51.524;5.080;2023-07-24T04:21:42;10.43;;;5.70;;
66342;SDS011;53144;51.524;5.080;2023-07-24T04:24:07;7.93;;;5.30;;
66342;SDS011;53144;51.524;5.080;2023-07-24T04:26:33;10.20;;;5.70;;
66342;SDS011;53144;51.524;5.080;2023-07-24T04:28:58;11.52;;;5.78;;
66342;SDS011;53144;51.524;5.080;2023-07-24T04:31:24;7.15;;;5.40;;
66342;SDS011;53144;51.524;5.080;2023-07-24T04:33:49;8.15;;;5.95;;
66342;SDS011;53144;51.524;5.080;2023-07-24T04:36:14;8.30;;;5.60;;
66342;SDS011;53144;51.524;5.080;2023-07-24T04:38:40;8.75;;;5.40;;
66342;SDS011;53144;51.524;5.080;2023-07-24T04:41:05;7.95;;;5.38;;
66342;SDS011;53144;51.524;5.080;2023-07-24T04:43:30;10.23;;;6.25;;
66342;SDS011;53144;51.524;5.080;2023-07-24T04:45:56;10.23;;;6.90;;
66342;SDS011;53144;51.524;5.080;2023-07-24T04:48:21;8.43;;;7.38;;
66342;SDS011;53144;51.524;5.080;2023-07-24T04:50:52;10.70;;;6.55;;
66342;SDS011;53144;51.524;5.080;2023-07-24T04:53:18;9.75;;;7.10;;
66342;SDS011;53144;51.524;5.080;2023-07-24T04:55:45;10.60;;;6.60;;
66342;SDS011;53144;51.524;5.080;2023-07-24T04:58:10;11.02;;;6.85;;
66342;SDS011;53144;51.524;5.080;2023-07-24T05:00:36;8.30;;;6.47;;
66342;SDS011;53144;51.524;5.080;2023-07-24T05:03:01;8.35;;;6.57;;
66342;SDS011;53144;51.524;5.080;2023-07-24T05:05:26;7.93;;;5.82;;
66342;SDS011;53144;51.524;5.080;2023-07-24T05:07:52;9.38;;;6.38;;
66342;SDS011;53144;51.524;5.080;2023-07-24T05:10:17;9.13;;;6.13;;
66342;SDS011;53144;51.524;5.080;2023-07-24T05:12:42;7.72;;;6.18;;
66342;SDS011;53144;51.524;5.080;2023-07-24T05:15:08;10.52;;;6.63;;
66342;SDS011;53144;51.524;5.080;2023-07-24T05:17:34;9.82;;;6.38;;
66342;SDS011;53144;51.524;5.080;2023-07-24T05:19:59;7.95;;;6.45;;
66342;SDS011;53144;51.524;5.080;2023-07-24T05:22:24;10.38;;;7.00;;
66342;SDS011;53144;51.524;5.080;2023-07-24T05:24:50;10.90;;;7.10;;
66342;SDS011;53144;51.524;5.080;2023-07-24T05:27:15;11.90;;;7.28;;
66342;SDS011;53144;51.524;5.080;2023-07-24T05:29:41;10.82;;;7.55;;
66342;SDS011;53144;51.524;5.080;2023-07-24T05:32:06;10.60;;;6.78;;
66342;SDS011;53144;51.524;5.080;2023-07-24T05:34:32;12.32;;;7.10;;
66342;SDS011;53144;51.524;5.080;2023-07-24T05:36:57;10.35;;;7.30;;
66342;SDS011;53144;51.524;5.080;2023-07-24T05:39:22;11.88;;;7.25;;
66342;SDS011;53144;51.524;5.080;2023-07-24T05:41:48;10.18;;;7.05;;
66342;SDS011;53144;51.524;5.080;2023-07-24T05:44:14;10.82;;;7.82;;
66342;SDS011;53144;51.524;5.080;2023-07-24T05:46:39;12.40;;;7.68;;
66342;SDS011;53144;51.524;5.080;2023-07-24T05:49:04;8.77;;;7.82;;
66342;SDS011;53144;51.524;5.080;2023-07-24T05:51:30;11.10;;;8.13;;
66342;SDS011;53144;51.524;5.080;2023-07-24T05:53:55;10.18;;;8.13;;
66342;SDS011;53144;51.524;5.080;2023-07-24T05:56:20;11.60;;;8.18;;
66342;SDS011;53144;51.524;5.080;2023-07-24T05:58:46;10.52;;;8.32;;
66342;SDS011;53144;51.524;5.080;2023-07-24T06:01:11;12.60;;;8.18;;
66342;SDS011;53144;51.524;5.080;2023-07-24T06:03:37;12.68;;;8.57;;
66342;SDS011;53144;51.524;5.080;2023-07-24T06:06:04;11.80;;;8.55;;
66342;SDS011;53144;51.524;5.080;2023-07-24T06:08:29;14.25;;;8.80;;
66342;SDS011;53144;51.524;5.080;2023-07-24T06:10:55;14.23;;;8.90;;
66342;SDS011;53144;51.524;5.080;2023-07-24T06:13:20;11.50;;;8.90;;
66342;SDS011;53144;51.524;5.080;2023-07-24T06:15:49;11.73;;;8.52;;
66342;SDS011;53144;51.524;5.080;2023-07-24T06:18:15;12.10;;;8.27;;
66342;SDS011;53144;51.524;5.080;2023-07-24T06:20:40;13.25;;;8.70;;
66342;SDS011;53144;51.524;5.080;2023-07-24T06:23:05;12.43;;;8.10;;
66342;SDS011;53144;51.524;5.080;2023-07-24T06:25:31;9.93;;;7.90;;
66342;SDS011;53144;51.524;5.080;2023-07-24T06:27:57;13.48;;;8.43;;
66342;SDS011;53144;51.524;5.080;2023-07-24T06:30:25;12.30;;;7.60;;
66342;SDS011;53144;51.524;5.080;2023-07-24T06:32:50;9.73;;;7.53;;
66342;SDS011;53144;51.524;5.080;2023-07-24T06:35:16;11.52;;;7.72;;
66342;SDS011;53144;51.524;5.080;2023-07-24T06:37:41;10.25;;;7.03;;
66342;SDS011;53144;51.524;5.080;2023-07-24T06:40:07;9.43;;;6.95;;
66342;SDS011;53144;51.524;5.080;2023-07-24T06:42:33;10.15;;;6.22;;
66342;SDS011;53144;51.524;5.080;2023-07-24T06:44:58;10.82;;;6.72;;
66342;SDS011;53144;51.524;5.080;2023-07-24T06:47:24;9.35;;;6.70;;
66342;SDS011;53144;51.524;5.080;2023-07-24T06:49:50;12.13;;;7.10;;
66342;SDS011;53144;51.524;5.080;2023-07-24T06:52:15;10.55;;;6.20;;
66342;SDS011;53144;51.524;5.080;2023-07-24T06:54:40;7.65;;;5.90;;
66342;SDS011;53144;51.524;5.080;2023-07-24T06:57:06;8.55;;;6.10;;
66342;SDS011;53144;51.524;5.080;2023-07-24T06:59:31;9.45;;;6.53;;
66342;SDS011;53144;51.524;5.080;2023-07-24T07:01:57;9.55;;;6.57;;
66342;SDS011;53144;51.524;5.080;2023-07-24T07:04:22;8.48;;;7.10;;
66342;SDS011;53144;51.524;5.080;2023-07-24T07:06:48;9.38;;;7.38;;
66342;SDS011;53144;51.524;5.080;2023-07-24T07:09:13;9.95;;;7.60;;
66342;SDS011;53144;51.524;5.080;2023-07-24T07:11:38;13.32;;;8.13;;
66342;SDS011;53144;51.524;5.080;2023-07-24T07:14:04;11.25;;;8.55;;
66342;SDS011;53144;51.524;5.080;2023-07-24T07:16:29;11.40;;;8.45;;
66342;SDS011;53144;51.524;5.080;2023-07-24T07:18:55;11.40;;;7.95;;
66342;SDS011;53144;51.524;5.080;2023-07-24T07:21:20;11.45;;;8.23;;
66342;SDS011;53144;51.524;5.080;2023-07-24T07:23:45;11.02;;;8.70;;
66342;SDS011;53144;51.524;5.080;2023-07-24T07:26:11;13.10;;;8.23;;
66342;SDS011;53144;51.524;5.080;2023-07-24T07:28:36;11.75;;;7.90;;
66342;SDS011;53144;51.524;5.080;2023-07-24T07:31:02;10.25;;;8.02;;
66342;SDS011;53144;51.524;5.080;2023-07-24T07:33:28;9.68;;;8.13;;
66342;SDS011;53144;51.524;5.080;2023-07-24T07:35:54;11.02;;;8.18;;
66342;SDS011;53144;51.524;5.080;2023-07-24T07:38:20;10.15;;;8.25;;
66342;SDS011;53144;51.524;5.080;2023-07-24T07:40:47;10.77;;;9.18;;
66342;SDS011;53144;51.524;5.080;2023-07-24T07:43:13;10.52;;;9.00;;
66342;SDS011;53144;51.524;5.080;2023-07-24T07:45:38;11.82;;;9.40;;
66342;SDS011;53144;51.524;5.080;2023-07-24T07:48:04;8.93;;;8.02;;
66342;SDS011;53144;51.524;5.080;2023-07-24T07:50:30;8.75;;;7.95;;
66342;SDS011;53144;51.524;5.080;2023-07-24T07:52:55;8.57;;;7.78;;
66342;SDS011;53144;51.524;5.080;2023-07-24T07:55:21;9.40;;;8.43;;
66342;SDS011;53144;51.524;5.080;2023-07-24T07:57:46;9.40;;;8.40;;
66342;SDS011;53144;51.524;5.080;2023-07-24T08:00:12;9.57;;;8.50;;
66342;SDS011;53144;51.524;5.080;2023-07-24T08:02:38;10.73;;;8.60;;
66342;SDS011;53144;51.524;5.080;2023-07-24T08:05:05;9.75;;;7.63;;
66342;SDS011;53144;51.524;5.080;2023-07-24T08:07:32;10.10;;;8.32;;
66342;SDS011;53144;51.524;5.080;2023-07-24T08:09:57;10.00;;;8.05;;
66342;SDS011;53144;51.524;5.080;2023-07-24T08:12:23;10.55;;;7.68;;
66342;SDS011;53144;51.524;5.080;2023-07-24T08:14:48;10.93;;;7.53;;
66342;SDS011;53144;51.524;5.080;2023-07-24T08:17:13;11.05;;;7.63;;
66342;SDS011;53144;51.524;5.080;2023-07-24T08:19:39;11.30;;;7.78;;
66342;SDS011;53144;51.524;5.080;2023-07-24T08:22:04;9.10;;;8.20;;
66342;SDS011;53144;51.524;5.080;2023-07-24T08:24:33;11.00;;;8.63;;
66342;SDS011;53144;51.524;5.080;2023-07-24T08:26:59;9.13;;;8.05;;
66342;SDS011;53144;51.524;5.080;2023-07-24T08:29:24;9.80;;;8.65;;
66342;SDS011;53144;51.524;5.080;2023-07-24T08:31:49;8.75;;;7.85;;
66342;SDS011;53144;51.524;5.080;2023-07-24T08:34:15;9.65;;;7.63;;
66342;SDS011;53144;51.524;5.080;2023-07-24T08:36:40;9.60;;;8.13;;
66342;SDS011;53144;51.524;5.080;2023-07-24T08:39:06;10.48;;;8.57;;
66342;SDS011;53144;51.524;5.080;2023-07-24T08:41:31;13.70;;;8.02;;
66342;SDS011;53144;51.524;5.080;2023-07-24T08:43:59;10.35;;;7.57;;
66342;SDS011;53144;51.524;5.080;2023-07-24T08:46:25;12.55;;;8.85;;
66342;SDS011;53144;51.524;5.080;2023-07-24T08:48:52;10.85;;;7.55;;
66342;SDS011;53144;51.524;5.080;2023-07-24T08:51:18;9.07;;;7.20;;
66342;SDS011;53144;51.524;5.080;2023-07-24T08:53:46;8.82;;;7.30;;
66342;SDS011;53144;51.524;5.080;2023-07-24T08:56:13;11.02;;;7.72;;
66342;SDS011;53144;51.524;5.080;2023-07-24T08:58:39;11.80;;;9.32;;
66342;SDS011;53144;51.524;5.080;2023-07-24T09:01:05;12.48;;;9.02;;
66342;SDS011;53144;51.524;5.080;2023-07-24T09:03:31;11.02;;;8.07;;
66342;SDS011;53144;51.524;5.080;2023-07-24T09:05:58;9.75;;;8.15;;
66342;SDS011;53144;51.524;5.080;2023-07-24T09:08:33;11.50;;;7.78;;
66342;SDS011;53144;51.524;5.080;2023-07-24T09:11:00;12.48;;;6.90;;
66342;SDS011;53144;51.524;5.080;2023-07-24T09:13:27;8.27;;;7.28;;
66342;SDS011;53144;51.524;5.080;2023-07-24T09:15:52;10.00;;;7.25;;
66342;SDS011;53144;51.524;5.080;2023-07-24T09:18:19;8.40;;;6.43;;
66342;SDS011;53144;51.524;5.080;2023-07-24T09:20:44;9.70;;;7.25;;
66342;SDS011;53144;51.524;5.080;2023-07-24T09:23:11;9.63;;;6.45;;
66342;SDS011;53144;51.524;5.080;2023-07-24T09:25:38;7.30;;;6.60;;
66342;SDS011;53144;51.524;5.080;2023-07-24T09:30:51;7.72;;;6.72;;
66342;SDS011;53144;51.524;5.080;2023-07-24T09:33:20;9.02;;;6.90;;
66342;SDS011;53144;51.524;5.080;2023-07-24T09:36:07;7.70;;;6.90;;
66342;SDS011;53144;51.524;5.080;2023-07-24T09:38:33;7.55;;;6.65;;
66342;SDS011;53144;51.524;5.080;2023-07-24T09:41:00;6.88;;;6.18;;
66342;SDS011;53144;51.524;5.080;2023-07-24T09:43:27;6.43;;;4.93;;
66342;SDS011;53144;51.524;5.080;2023-07-24T09:45:53;6.55;;;5.50;;
66342;SDS011;53144;51.524;5.080;2023-07-24T09:48:22;5.82;;;5.22;;
66342;SDS011;53144;51.524;5.080;2023-07-24T09:50:49;5.95;;;5.38;;
66342;SDS011;53144;51.524;5.080;2023-07-24T09:53:30;5.88;;;5.10;;
66342;SDS011;53144;51.524;5.080;2023-07-24T09:56:04;7.10;;;5.45;;
66342;SDS011;53144;51.524;5.080;2023-07-24T09:58:34;7.15;;;5.72;;
66342;SDS011;53144;51.524;5.080;2023-07-24T10:01:02;6.70;;;5.63;;
66342;SDS011;53144;51.524;5.080;2023-07-24T10:03:30;6.43;;;5.80;;
66342;SDS011;53144;51.524;5.080;2023-07-24T10:05:57;7.00;;;6.25;;
66342;SDS011;53144;51.524;5.080;2023-07-24T10:08:22;7.38;;;6.40;;
66342;SDS011;53144;51.524;5.080;2023-07-24T10:10:49;8.23;;;6.40;;
66342;SDS011;53144;51.524;5.080;2023-07-24T10:13:17;7.53;;;6.32;;
66342;SDS011;53144;51.524;5.080;2023-07-24T10:15:44;7.57;;;6.47;;
66342;SDS011;53144;51.524;5.080;2023-07-24T10:18:11;7.25;;;6.47;;
66342;SDS011;53144;51.524;5.080;2023-07-24T10:20:38;8.45;;;7.57;;
66342;SDS011;53144;51.524;5.080;2023-07-24T10:23:05;8.13;;;7.25;;
66342;SDS011;53144;51.524;5.080;2023-07-24T10:25:33;10.75;;;7.30;;
66342;SDS011;53144;51.524;5.080;2023-07-24T10:28:06;8.57;;;7.78;;
66342;SDS011;53144;51.524;5.080;2023-07-24T10:30:36;9.40;;;8.40;;
66342;SDS011;53144;51.524;5.080;2023-07-24T10:33:05;8.20;;;7.40;;
66342;SDS011;53144;51.524;5.080;2023-07-24T10:35:42;8.63;;;7.68;;
66342;SDS011;53144;51.524;5.080;2023-07-24T10:38:10;8.57;;;7.78;;
66342;SDS011;53144;51.524;5.080;2023-07-24T10:40:39;8.55;;;7.38;;
66342;SDS011;53144;51.524;5.080;2023-07-24T10:43:07;8.18;;;7.43;;
66342;SDS011;53144;51.524;5.080;2023-07-24T10:45:40;9.05;;;7.63;;
66342;SDS011;53144;51.524;5.080;2023-07-24T10:48:16;7.53;;;6.55;;
66342;SDS011;53144;51.524;5.080;2023-07-24T10:50:43;8.00;;;7.30;;
66342;SDS011;53144;51.524;5.080;2023-07-24T10:53:10;7.40;;;6.70;;
66342;SDS011;53144;51.524;5.080;2023-07-24T10:55:41;8.07;;;7.28;;
66342;SDS011;53144;51.524;5.080;2023-07-24T10:58:07;9.23;;;8.43;;
66342;SDS011;53144;51.524;5.080;2023-07-24T11:00:33;8.95;;;8.10;;
66342;SDS011;53144;51.524;5.080;2023-07-24T11:02:59;9.25;;;8.35;;
66342;SDS011;53144;51.524;5.080;2023-07-24T11:05:24;9.15;;;8.35;;
66342;SDS011;53144;51.524;5.080;2023-07-24T11:07:50;8.43;;;7.63;;
66342;SDS011;53144;51.524;5.080;2023-07-24T11:10:19;8.82;;;7.38;;
66342;SDS011;53144;51.524;5.080;2023-07-24T11:12:46;9.10;;;6.95;;
66342;SDS011;53144;51.524;5.080;2023-07-24T11:15:12;8.23;;;7.43;;
66342;SDS011;53144;51.524;5.080;2023-07-24T11:17:39;8.95;;;7.40;;
66342;SDS011;53144;51.524;5.080;2023-07-24T11:20:12;7.38;;;6.60;;
66342;SDS011;53144;51.524;5.080;2023-07-24T11:22:39;7.35;;;6.65;;
66342;SDS011;53144;51.524;5.080;2023-07-24T11:25:05;7.13;;;6.43;;
66342;SDS011;53144;51.524;5.080;2023-07-24T11:27:32;10.95;;;7.35;;
66342;SDS011;53144;51.524;5.080;2023-07-24T11:29:57;7.60;;;6.90;;
66342;SDS011;53144;51.524;5.080;2023-07-24T11:32:23;7.70;;;7.00;;
66342;SDS011;53144;51.524;5.080;2023-07-24T11:34:49;7.97;;;7.15;;
66342;SDS011;53144;51.524;5.080;2023-07-24T11:37:15;8.68;;;7.30;;
66342;SDS011;53144;51.524;5.080;2023-07-24T11:39:41;8.90;;;7.95;;
66342;SDS011;53144;51.524;5.080;2023-07-24T11:42:07;8.20;;;7.38;;
66342;SDS011;53144;51.524;5.080;2023-07-24T11:44:32;9.55;;;7.88;;
66342;SDS011;53144;51.524;5.080;2023-07-24T11:47:02;8.27;;;7.47;;
66342;SDS011;53144;51.524;5.080;2023-07-24T11:49:28;8.02;;;7.22;;
66342;SDS011;53144;51.524;5.080;2023-07-24T11:52:00;9.05;;;8.15;;
66342;SDS011;53144;51.524;5.080;2023-07-24T11:54:34;9.32;;;8.27;;
66342;SDS011;53144;51.524;5.080;2023-07-24T11:57:00;10.50;;;7.30;;
66342;SDS011;53144;51.524;5.080;2023-07-24T11:59:26;9.07;;;7.95;;
66342;SDS011;53144;51.524;5.080;2023-07-24T12:01:51;8.82;;;7.93;;
66342;SDS011;53144;51.524;5.080;2023-07-24T12:04:17;16.65;;;9.35;;
66342;SDS011;53144;51.524;5.080;2023-07-24T12:06:43;9.98;;;8.98;;
66342;SDS011;53144;51.524;5.080;2023-07-24T12:09:08;9.48;;;8.50;;
66342;SDS011;53144;51.524;5.080;2023-07-24T12:11:43;13.48;;;8.32;;
66342;SDS011;53144;51.524;5.080;2023-07-24T12:14:09;11.15;;;6.85;;
66342;SDS011;53144;51.524;5.080;2023-07-24T12:16:35;9.73;;;6.60;;
66342;SDS011;53144;51.524;5.080;2023-07-24T12:19:01;10.70;;;7.32;;
66342;SDS011;53144;51.524;5.080;2023-07-24T12:21:26;8.88;;;7.78;;
66342;SDS011;53144;51.524;5.080;2023-07-24T12:23:52;10.15;;;7.90;;
66342;SDS011;53144;51.524;5.080;2023-07-24T12:26:17;9.70;;;7.82;;
66342;SDS011;53144;51.524;5.080;2023-07-24T12:28:42;9.82;;;8.77;;
66342;SDS011;53144;51.524;5.080;2023-07-24T12:31:08;10.75;;;7.93;;
66342;SDS011;53144;51.524;5.080;2023-07-24T12:33:33;10.38;;;8.70;;
66342;SDS011;53144;51.524;5.080;2023-07-24T12:35:59;11.25;;;9.20;;
66342;SDS011;53144;51.524;5.080;2023-07-24T12:38:25;10.15;;;9.10;;
66342;SDS011;53144;51.524;5.080;2023-07-24T12:40:50;8.95;;;7.32;;
66342;SDS011;53144;51.524;5.080;2023-07-24T12:43:15;7.53;;;6.70;;
66342;SDS011;53144;51.524;5.080;2023-07-24T12:45:41;10.85;;;7.35;;
66342;SDS011;53144;51.524;5.080;2023-07-24T12:48:06;7.28;;;6.57;;
66342;SDS011;53144;51.524;5.080;2023-07-24T12:50:32;8.20;;;6.38;;
66342;SDS011;53144;51.524;5.080;2023-07-24T12:52:58;8.18;;;6.75;;
66342;SDS011;53144;51.524;5.080;2023-07-24T12:55:23;10.75;;;7.30;;
66342;SDS011;53144;51.524;5.080;2023-07-24T12:57:49;8.60;;;7.70;;
66342;SDS011;53144;51.524;5.080;2023-07-24T13:00:14;8.98;;;7.82;;
66342;SDS011;53144;51.524;5.080;2023-07-24T13:02:40;10.02;;;7.75;;
66342;SDS011;53144;51.524;5.080;2023-07-24T13:05:05;10.18;;;7.78;;
66342;SDS011;53144;51.524;5.080;2023-07-24T13:07:31;11.63;;;7.63;;
66342;SDS011;53144;51.524;5.080;2023-07-24T13:09:56;9.57;;;7.60;;
66342;SDS011;53144;51.524;5.080;2023-07-24T13:12:21;9.25;;;6.47;;
66342;SDS011;53144;51.524;5.080;2023-07-24T13:14:47;12.35;;;6.20;;
66342;SDS011;53144;51.524;5.080;2023-07-24T13:17:12;12.63;;;6.57;;
66342;SDS011;53144;51.524;5.080;2023-07-24T13:19:38;8.57;;;6.63;;
66342;SDS011;53144;51.524;5.080;2023-07-24T13:22:03;10.70;;;7.90;;
66342;SDS011;53144;51.524;5.080;2023-07-24T13:24:29;12.35;;;8.15;;
66342;SDS011;53144;51.524;5.080;2023-07-24T13:26:54;9.88;;;8.05;;
66342;SDS011;53144;51.524;5.080;2023-07-24T13:29:20;10.38;;;7.95;;
66342;SDS011;53144;51.524;5.080;2023-07-24T13:31:45;12.30;;;8.40;;
66342;SDS011;53144;51.524;5.080;2023-07-24T13:34:10;11.02;;;8.75;;
66342;SDS011;53144;51.524;5.080;2023-07-24T13:36:36;15.35;;;8.85;;
66342;SDS011;53144;51.524;5.080;2023-07-24T13:39:02;10.13;;;6.00;;
66342;SDS011;53144;51.524;5.080;2023-07-24T13:41:27;7.68;;;5.63;;
66342;SDS011;53144;51.524;5.080;2023-07-24T13:43:53;10.82;;;5.07;;
66342;SDS011;53144;51.524;5.080;2023-07-24T13:46:18;10.57;;;5.30;;
66342;SDS011;53144;51.524;5.080;2023-07-24T13:48:44;7.38;;;5.32;;
66342;SDS011;53144;51.524;5.080;2023-07-24T13:51:09;11.88;;;5.30;;
66342;SDS011;53144;51.524;5.080;2023-07-24T13:53:35;7.80;;;4.70;;
66342;SDS011;53144;51.524;5.080;2023-07-24T13:56:01;9.43;;;5.10;;
66342;SDS011;53144;51.524;5.080;2023-07-24T13:58:26;7.70;;;4.05;;
66342;SDS011;53144;51.524;5.080;2023-07-24T14:00:52;8.50;;;4.40;;
66342;SDS011;53144;51.524;5.080;2023-07-24T14:03:17;6.85;;;4.20;;
66342;SDS011;53144;51.524;5.080;2023-07-24T14:05:42;6.43;;;3.92;;
66342;SDS011;53144;51.524;5.080;2023-07-24T14:08:08;6.65;;;3.20;;
66342;SDS011;53144;51.524;5.080;2023-07-24T14:10:33;7.32;;;3.38;;
66342;SDS011;53144;51.524;5.080;2023-07-24T14:12:59;6.90;;;3.25;;
66342;SDS011;53144;51.524;5.080;2023-07-24T14:15:24;4.50;;;3.22;;
66342;SDS011;53144;51.524;5.080;2023-07-24T14:17:50;10.48;;;3.85;;
66342;SDS011;53144;51.524;5.080;2023-07-24T14:20:15;7.63;;;3.67;;
66342;SDS011;53144;51.524;5.080;2023-07-24T14:22:41;6.53;;;3.47;;
66342;SDS011;53144;51.524;5.080;2023-07-24T14:25:06;5.25;;;3.35;;
66342;SDS011;53144;51.524;5.080;2023-07-24T14:27:32;6.28;;;4.00;;
66342;SDS011;53144;51.524;5.080;2023-07-24T14:29:57;8.05;;;4.13;;
66342;SDS011;53144;51.524;5.080;2023-07-24T14:32:23;8.98;;;4.50;;
66342;SDS011;53144;51.524;5.080;2023-07-24T14:34:49;8.93;;;4.72;;
66342;SDS011;53144;51.524;5.080;2023-07-24T14:37:16;7.53;;;4.57;;
66342;SDS011;53144;51.524;5.080;2023-07-24T14:39:41;8.48;;;4.10;;